Terminal Aerodrome Forecast
Issued by NWS Charleston, WV

Current Version | Previous Version | Graphics & Text | Print | Product List | Glossary On
Versions: 1 2 3 4 5 6 7 8 9 10 11 12 13 14 15 16 17 18 19 20 21 22 23 24 25 26
000
FTUS41 KRLX 311700
TAFPKB
TAF
KPKB 311740Z 3118/0118 26008KT P6SM SCT040
     FM312200 24004KT P6SM SCT050
     FM010000 00000KT P6SM SCT050
     FM010800 00000KT 6SM BR SCT050
     FM011100 00000KT 3SM BR SCT050
     FM011300 00000KT 6SM BR SCT050
     FM011400 13004KT P6SM SCT050
     FM011600 14005KT P6SM BKN040=

USA.gov is the U.S. government's official web portal to all federal, state and local government web resources and services.